Samanyolu — PJZY — position and weather

sailwx.info

Track history (hours):
 
Tides and Currents Weather Stations Pressure Air Temp Water Temp Dewpoint Dewpoint Depression Visibility Wind Speed Wind Dir Waves Ship Positions

Samanyolu

Last reported at 2013-Sep-03 10:33 UTC. Time now 2014-Jul-24 16:58 UTC.
Position N 40°46' E 029°09'.
Warning: this ship's position is months out of date.

Length 80 m; draft 4.8 m.

Type: Cargo ship. MMSI: 306897000.

Date/timePositionNaut miles runAvg speedWind from/ knotsBaromVisibWave heightAir tempDewpointWater temp
2013-Sep-03 10:33N 40°46' E 029°09'7 7.4
2013-Sep-03 09:33N 40°46' E 028°59'188 7.2
2013-Sep-02 07:32N 39°03' E 025°34'8 7.8
2013-Sep-02 06:33N 38°56' E 025°29'8 7.5
2013-Sep-02 05:29N 38°49' E 025°24'7 7.4
2013-Sep-02 04:33N 38°43' E 025°19'11 7.4
2013-Sep-02 03:03N 38°34' E 025°11'84 8.0
2013-Sep-01 16:33N 37°26' E 024°08'8 7.8
2013-Sep-01 15:33N 37°19' E 024°03'9 7.7
2013-Sep-01 14:24N 37°11' E 023°59'135 5.8
2013-Aug-31 15:05N 37°32' E 021°12'5 8.9
2013-Aug-31 14:33N 37°36' E 021°09'9 9.2
2013-Aug-31 13:33N 37°44' E 021°04'9 9.3
2013-Aug-31 12:33N 37°53' E 020°59'9 9.0
2013-Aug-31 11:31N 38°01' E 020°54'10 8.7
2013-Aug-31 10:22N 38°10' E 020°48'  
2013-Aug-25 05:29N 38°09' E 020°50'19 9.0
2013-Aug-25 03:21N 37°52' E 020°59'7 8.9
2013-Aug-25 02:33N 37°45' E 021°03'9 8.8
2013-Aug-25 01:33N 37°37' E 021°08'  
Track history (hours):
 
Tides and Currents Weather Stations Pressure Air Temp Water Temp Dewpoint Dewpoint Depression Visibility Wind Speed Wind Dir Waves Ship Positions

Samanyolu

Last reported at 2013-Sep-03 10:33 UTC. Time now 2014-Jul-24 16:58 UTC.
Position N 40°46' E 029°09'.
Warning: this ship's position is months out of date.

Length 80 m; draft 4.8 m.

Type: Cargo ship. MMSI: 306897000.

Date/timePositionNaut miles runAvg speedWind from/ knotsBaromVisibWave heightAir tempDewpointWater temp
2013-Sep-03 10:33N 40°46' E 029°09'7 7.4
2013-Sep-03 09:33N 40°46' E 028°59'188 7.2
2013-Sep-02 07:32N 39°03' E 025°34'8 7.8
2013-Sep-02 06:33N 38°56' E 025°29'8 7.5
2013-Sep-02 05:29N 38°49' E 025°24'7 7.4
2013-Sep-02 04:33N 38°43' E 025°19'11 7.4
2013-Sep-02 03:03N 38°34' E 025°11'84 8.0
2013-Sep-01 16:33N 37°26' E 024°08'8 7.8
2013-Sep-01 15:33N 37°19' E 024°03'9 7.7
2013-Sep-01 14:24N 37°11' E 023°59'135 5.8
2013-Aug-31 15:05N 37°32' E 021°12'5 8.9
2013-Aug-31 14:33N 37°36' E 021°09'9 9.2
2013-Aug-31 13:33N 37°44' E 021°04'9 9.3
2013-Aug-31 12:33N 37°53' E 020°59'9 9.0
2013-Aug-31 11:31N 38°01' E 020°54'10 8.7
2013-Aug-31 10:22N 38°10' E 020°48'  
2013-Aug-25 05:29N 38°09' E 020°50'19 9.0
2013-Aug-25 03:21N 37°52' E 020°59'7 8.9
2013-Aug-25 02:33N 37°45' E 021°03'9 8.8
2013-Aug-25 01:33N 37°37' E 021°08'  

Dump ship's entire track history